sensor_id;sensor_type;location;lat;lon;timestamp;P1;durP1;ratioP1;P2;durP2;ratioP2
52554;SDS011;38455;52.710;6.502;2023-10-19T00:00:35;31.55;;;16.30;;
52554;SDS011;38455;52.710;6.502;2023-10-19T00:03:04;34.90;;;17.05;;
52554;SDS011;38455;52.710;6.502;2023-10-19T00:05:34;31.35;;;17.67;;
52554;SDS011;38455;52.710;6.502;2023-10-19T00:08:02;29.25;;;17.00;;
52554;SDS011;38455;52.710;6.502;2023-10-19T00:10:49;30.88;;;16.90;;
52554;SDS011;38455;52.710;6.502;2023-10-19T00:13:27;29.60;;;17.17;;
52554;SDS011;38455;52.710;6.502;2023-10-19T00:15:55;33.63;;;19.33;;
52554;SDS011;38455;52.710;6.502;2023-10-19T00:18:23;36.88;;;19.08;;
52554;SDS011;38455;52.710;6.502;2023-10-19T00:20:50;33.55;;;18.17;;
52554;SDS011;38455;52.710;6.502;2023-10-19T00:23:21;30.40;;;18.08;;
52554;SDS011;38455;52.710;6.502;2023-10-19T00:26:01;33.40;;;19.35;;
52554;SDS011;38455;52.710;6.502;2023-10-19T00:28:35;33.03;;;19.53;;
52554;SDS011;38455;52.710;6.502;2023-10-19T00:31:03;32.83;;;19.33;;
52554;SDS011;38455;52.710;6.502;2023-10-19T00:33:33;33.65;;;18.70;;
52554;SDS011;38455;52.710;6.502;2023-10-19T00:36:04;36.15;;;19.75;;
52554;SDS011;38455;52.710;6.502;2023-10-19T00:38:37;39.20;;;20.77;;
52554;SDS011;38455;52.710;6.502;2023-10-19T00:41:04;41.63;;;22.75;;
52554;SDS011;38455;52.710;6.502;2023-10-19T00:43:38;41.47;;;21.38;;
52554;SDS011;38455;52.710;6.502;2023-10-19T00:46:13;31.15;;;17.02;;
52554;SDS011;38455;52.710;6.502;2023-10-19T00:51:16;43.35;;;21.52;;
52554;SDS011;38455;52.710;6.502;2023-10-19T00:53:54;45.08;;;23.60;;
52554;SDS011;38455;52.710;6.502;2023-10-19T00:56:22;47.08;;;24.08;;
52554;SDS011;38455;52.710;6.502;2023-10-19T00:58:50;51.25;;;25.45;;
52554;SDS011;38455;52.710;6.502;2023-10-19T01:01:25;41.33;;;22.45;;
52554;SDS011;38455;52.710;6.502;2023-10-19T01:03:54;46.38;;;25.48;;
52554;SDS011;38455;52.710;6.502;2023-10-19T01:06:23;52.88;;;26.13;;
52554;SDS011;38455;52.710;6.502;2023-10-19T01:08:50;49.72;;;26.20;;
52554;SDS011;38455;52.710;6.502;2023-10-19T01:11:17;47.05;;;24.42;;
52554;SDS011;38455;52.710;6.502;2023-10-19T01:13:49;50.60;;;25.17;;
52554;SDS011;38455;52.710;6.502;2023-10-19T01:16:17;48.47;;;25.05;;
52554;SDS011;38455;52.710;6.502;2023-10-19T01:18:49;50.42;;;24.48;;
52554;SDS011;38455;52.710;6.502;2023-10-19T01:21:24;57.47;;;26.67;;
52554;SDS011;38455;52.710;6.502;2023-10-19T01:24:00;56.03;;;26.73;;
52554;SDS011;38455;52.710;6.502;2023-10-19T01:26:26;63.22;;;28.88;;
52554;SDS011;38455;52.710;6.502;2023-10-19T01:28:52;58.28;;;28.05;;
52554;SDS011;38455;52.710;6.502;2023-10-19T01:31:25;53.65;;;28.50;;
52554;SDS011;38455;52.710;6.502;2023-10-19T01:33:54;48.75;;;24.30;;
52554;SDS011;38455;52.710;6.502;2023-10-19T01:36:24;53.60;;;26.50;;
52554;SDS011;38455;52.710;6.502;2023-10-19T01:38:51;55.53;;;26.90;;
52554;SDS011;38455;52.710;6.502;2023-10-19T01:41:19;55.08;;;26.98;;
52554;SDS011;38455;52.710;6.502;2023-10-19T01:43:46;50.42;;;25.65;;
52554;SDS011;38455;52.710;6.502;2023-10-19T01:46:14;47.83;;;23.30;;
52554;SDS011;38455;52.710;6.502;2023-10-19T01:48:47;62.33;;;26.75;;
52554;SDS011;38455;52.710;6.502;2023-10-19T01:51:23;50.10;;;26.65;;
52554;SDS011;38455;52.710;6.502;2023-10-19T01:53:51;55.38;;;27.38;;
52554;SDS011;38455;52.710;6.502;2023-10-19T01:56:20;56.67;;;28.00;;
52554;SDS011;38455;52.710;6.502;2023-10-19T01:58:46;48.88;;;25.80;;
52554;SDS011;38455;52.710;6.502;2023-10-19T02:01:13;50.15;;;26.73;;
52554;SDS011;38455;52.710;6.502;2023-10-19T02:04:04;48.83;;;25.27;;
52554;SDS011;38455;52.710;6.502;2023-10-19T02:06:31;54.80;;;26.15;;
52554;SDS011;38455;52.710;6.502;2023-10-19T02:11:54;46.20;;;22.05;;
52554;SDS011;38455;52.710;6.502;2023-10-19T02:14:22;50.95;;;24.63;;
52554;SDS011;38455;52.710;6.502;2023-10-19T02:16:54;41.65;;;23.05;;
52554;SDS011;38455;52.710;6.502;2023-10-19T02:19:25;56.30;;;25.95;;
52554;SDS011;38455;52.710;6.502;2023-10-19T02:21:52;59.35;;;27.33;;
52554;SDS011;38455;52.710;6.502;2023-10-19T02:24:20;44.92;;;23.05;;
52554;SDS011;38455;52.710;6.502;2023-10-19T02:26:48;53.15;;;24.17;;
52554;SDS011;38455;52.710;6.502;2023-10-19T02:29:16;40.65;;;20.63;;
52554;SDS011;38455;52.710;6.502;2023-10-19T02:31:43;48.40;;;23.35;;
52554;SDS011;38455;52.710;6.502;2023-10-19T02:34:10;47.85;;;22.50;;
52554;SDS011;38455;52.710;6.502;2023-10-19T02:36:38;47.55;;;23.33;;
52554;SDS011;38455;52.710;6.502;2023-10-19T02:39:05;43.55;;;20.58;;
52554;SDS011;38455;52.710;6.502;2023-10-19T02:41:34;43.05;;;22.77;;
52554;SDS011;38455;52.710;6.502;2023-10-19T02:44:04;47.08;;;23.13;;
52554;SDS011;38455;52.710;6.502;2023-10-19T02:46:34;53.53;;;24.38;;
52554;SDS011;38455;52.710;6.502;2023-10-19T02:49:04;42.35;;;21.77;;
52554;SDS011;38455;52.710;6.502;2023-10-19T02:51:39;51.95;;;24.35;;
52554;SDS011;38455;52.710;6.502;2023-10-19T02:54:06;41.08;;;21.88;;
52554;SDS011;38455;52.710;6.502;2023-10-19T02:56:33;54.28;;;25.25;;
52554;SDS011;38455;52.710;6.502;2023-10-19T02:59:09;41.27;;;23.13;;
52554;SDS011;38455;52.710;6.502;2023-10-19T03:01:34;47.95;;;24.35;;
52554;SDS011;38455;52.710;6.502;2023-10-19T03:04:01;50.20;;;25.55;;
52554;SDS011;38455;52.710;6.502;2023-10-19T03:06:28;49.25;;;24.00;;
52554;SDS011;38455;52.710;6.502;2023-10-19T03:08:58;50.25;;;25.33;;
52554;SDS011;38455;52.710;6.502;2023-10-19T03:11:44;59.23;;;27.57;;
52554;SDS011;38455;52.710;6.502;2023-10-19T03:14:10;60.88;;;26.95;;
52554;SDS011;38455;52.710;6.502;2023-10-19T03:16:41;60.42;;;26.08;;
52554;SDS011;38455;52.710;6.502;2023-10-19T03:19:07;46.97;;;24.75;;
52554;SDS011;38455;52.710;6.502;2023-10-19T03:21:33;61.88;;;27.95;;
52554;SDS011;38455;52.710;6.502;2023-10-19T03:24:07;55.22;;;26.98;;
52554;SDS011;38455;52.710;6.502;2023-10-19T03:26:48;59.03;;;27.50;;
52554;SDS011;38455;52.710;6.502;2023-10-19T03:29:14;58.95;;;27.23;;
52554;SDS011;38455;52.710;6.502;2023-10-19T03:31:48;51.03;;;25.25;;
52554;SDS011;38455;52.710;6.502;2023-10-19T03:34:13;58.25;;;28.05;;
52554;SDS011;38455;52.710;6.502;2023-10-19T03:36:41;72.47;;;29.67;;
52554;SDS011;38455;52.710;6.502;2023-10-19T03:39:07;67.00;;;29.48;;
52554;SDS011;38455;52.710;6.502;2023-10-19T03:41:37;62.13;;;29.50;;
52554;SDS011;38455;52.710;6.502;2023-10-19T03:44:04;55.85;;;27.80;;
52554;SDS011;38455;52.710;6.502;2023-10-19T03:46:30;54.90;;;26.45;;
52554;SDS011;38455;52.710;6.502;2023-10-19T03:48:56;61.90;;;28.58;;
52554;SDS011;38455;52.710;6.502;2023-10-19T03:51:43;77.63;;;31.95;;
52554;SDS011;38455;52.710;6.502;2023-10-19T03:54:23;78.97;;;32.28;;
52554;SDS011;38455;52.710;6.502;2023-10-19T03:56:50;77.57;;;30.95;;
52554;SDS011;38455;52.710;6.502;2023-10-19T03:59:17;68.40;;;29.73;;
52554;SDS011;38455;52.710;6.502;2023-10-19T04:01:43;74.65;;;31.77;;
52554;SDS011;38455;52.710;6.502;2023-10-19T04:04:09;63.17;;;29.85;;
52554;SDS011;38455;52.710;6.502;2023-10-19T04:06:35;66.00;;;30.40;;
52554;SDS011;38455;52.710;6.502;2023-10-19T04:09:02;63.53;;;28.52;;
52554;SDS011;38455;52.710;6.502;2023-10-19T04:11:31;84.93;;;33.88;;
52554;SDS011;38455;52.710;6.502;2023-10-19T04:14:13;77.47;;;32.50;;
52554;SDS011;38455;52.710;6.502;2023-10-19T04:16:40;60.22;;;27.58;;
52554;SDS011;38455;52.710;6.502;2023-10-19T04:19:11;71.72;;;31.10;;
52554;SDS011;38455;52.710;6.502;2023-10-19T04:21:38;66.15;;;30.17;;
52554;SDS011;38455;52.710;6.502;2023-10-19T04:24:07;73.95;;;30.65;;
52554;SDS011;38455;52.710;6.502;2023-10-19T04:26:34;47.58;;;25.83;;
52554;SDS011;38455;52.710;6.502;2023-10-19T04:29:06;70.38;;;29.80;;
52554;SDS011;38455;52.710;6.502;2023-10-19T04:31:42;63.08;;;28.75;;
52554;SDS011;38455;52.710;6.502;2023-10-19T04:34:20;71.00;;;30.77;;
52554;SDS011;38455;52.710;6.502;2023-10-19T04:36:50;71.13;;;30.95;;
52554;SDS011;38455;52.710;6.502;2023-10-19T04:39:17;55.97;;;27.20;;
52554;SDS011;38455;52.710;6.502;2023-10-19T04:41:46;64.05;;;29.13;;
52554;SDS011;38455;52.710;6.502;2023-10-19T04:44:13;50.88;;;25.17;;
52554;SDS011;38455;52.710;6.502;2023-10-19T04:46:40;66.80;;;30.17;;
52554;SDS011;38455;52.710;6.502;2023-10-19T04:49:06;56.95;;;27.10;;
52554;SDS011;38455;52.710;6.502;2023-10-19T04:51:32;63.67;;;28.60;;
52554;SDS011;38455;52.710;6.502;2023-10-19T04:53:59;56.80;;;26.98;;
52554;SDS011;38455;52.710;6.502;2023-10-19T04:56:25;50.70;;;25.75;;
52554;SDS011;38455;52.710;6.502;2023-10-19T04:58:51;64.63;;;28.58;;
52554;SDS011;38455;52.710;6.502;2023-10-19T05:01:17;50.13;;;25.83;;
52554;SDS011;38455;52.710;6.502;2023-10-19T05:03:43;67.82;;;29.60;;
52554;SDS011;38455;52.710;6.502;2023-10-19T05:06:09;60.13;;;28.25;;
52554;SDS011;38455;52.710;6.502;2023-10-19T05:08:35;72.10;;;29.95;;
52554;SDS011;38455;52.710;6.502;2023-10-19T05:11:02;61.35;;;28.10;;
52554;SDS011;38455;52.710;6.502;2023-10-19T05:13:35;75.30;;;30.63;;
52554;SDS011;38455;52.710;6.502;2023-10-19T05:16:01;47.35;;;25.27;;
52554;SDS011;38455;52.710;6.502;2023-10-19T05:21:17;72.15;;;30.50;;
52554;SDS011;38455;52.710;6.502;2023-10-19T05:23:43;52.35;;;25.27;;
52554;SDS011;38455;52.710;6.502;2023-10-19T05:26:09;57.35;;;26.20;;
52554;SDS011;38455;52.710;6.502;2023-10-19T05:28:34;64.32;;;28.55;;
52554;SDS011;38455;52.710;6.502;2023-10-19T05:31:00;62.65;;;29.05;;
52554;SDS011;38455;52.710;6.502;2023-10-19T05:33:29;69.80;;;29.60;;
52554;SDS011;38455;52.710;6.502;2023-10-19T05:35:55;56.95;;;27.10;;
52554;SDS011;38455;52.710;6.502;2023-10-19T05:38:20;58.03;;;27.75;;
52554;SDS011;38455;52.710;6.502;2023-10-19T05:40:47;67.80;;;29.55;;
52554;SDS011;38455;52.710;6.502;2023-10-19T05:43:15;62.67;;;29.98;;
52554;SDS011;38455;52.710;6.502;2023-10-19T05:45:41;73.70;;;30.35;;
52554;SDS011;38455;52.710;6.502;2023-10-19T05:48:06;62.60;;;30.20;;
52554;SDS011;38455;52.710;6.502;2023-10-19T05:50:33;64.47;;;29.73;;
52554;SDS011;38455;52.710;6.502;2023-10-19T05:52:59;61.55;;;29.90;;
52554;SDS011;38455;52.710;6.502;2023-10-19T05:55:25;64.07;;;30.42;;
52554;SDS011;38455;52.710;6.502;2023-10-19T05:57:51;73.03;;;31.00;;
52554;SDS011;38455;52.710;6.502;2023-10-19T06:00:17;61.50;;;28.83;;
52554;SDS011;38455;52.710;6.502;2023-10-19T06:02:45;66.65;;;31.38;;
52554;SDS011;38455;52.710;6.502;2023-10-19T06:05:12;74.88;;;32.53;;
52554;SDS011;38455;52.710;6.502;2023-10-19T06:07:45;64.60;;;29.92;;
52554;SDS011;38455;52.710;6.502;2023-10-19T06:10:12;73.07;;;33.35;;
52554;SDS011;38455;52.710;6.502;2023-10-19T06:12:48;92.38;;;36.38;;
52554;SDS011;38455;52.710;6.502;2023-10-19T06:15:15;72.28;;;32.63;;
52554;SDS011;38455;52.710;6.502;2023-10-19T06:17:42;70.68;;;32.15;;
52554;SDS011;38455;52.710;6.502;2023-10-19T06:20:09;70.15;;;32.03;;
52554;SDS011;38455;52.710;6.502;2023-10-19T06:22:48;77.72;;;33.08;;
52554;SDS011;38455;52.710;6.502;2023-10-19T06:25:21;81.13;;;34.60;;
52554;SDS011;38455;52.710;6.502;2023-10-19T06:27:49;82.18;;;34.20;;
52554;SDS011;38455;52.710;6.502;2023-10-19T06:30:16;73.78;;;32.08;;
52554;SDS011;38455;52.710;6.502;2023-10-19T06:33:04;77.68;;;34.50;;
52554;SDS011;38455;52.710;6.502;2023-10-19T06:35:30;80.32;;;34.10;;
52554;SDS011;38455;52.710;6.502;2023-10-19T06:37:57;81.72;;;35.13;;
52554;SDS011;38455;52.710;6.502;2023-10-19T06:40:26;83.88;;;36.22;;
52554;SDS011;38455;52.710;6.502;2023-10-19T06:42:54;95.40;;;39.55;;
52554;SDS011;38455;52.710;6.502;2023-10-19T06:45:21;93.35;;;38.33;;
52554;SDS011;38455;52.710;6.502;2023-10-19T06:47:47;89.60;;;36.83;;
52554;SDS011;38455;52.710;6.502;2023-10-19T06:50:15;81.65;;;34.92;;
52554;SDS011;38455;52.710;6.502;2023-10-19T06:52:42;97.38;;;39.40;;
52554;SDS011;38455;52.710;6.502;2023-10-19T06:55:09;81.50;;;36.53;;
52554;SDS011;38455;52.710;6.502;2023-10-19T06:57:45;95.07;;;39.13;;
52554;SDS011;38455;52.710;6.502;2023-10-19T07:00:16;96.28;;;38.53;;
52554;SDS011;38455;52.710;6.502;2023-10-19T07:02:49;93.28;;;39.40;;
52554;SDS011;38455;52.710;6.502;2023-10-19T07:05:18;67.78;;;33.53;;
52554;SDS011;38455;52.710;6.502;2023-10-19T07:07:48;80.82;;;35.60;;
52554;SDS011;38455;52.710;6.502;2023-10-19T07:10:16;93.70;;;37.03;;
52554;SDS011;38455;52.710;6.502;2023-10-19T07:12:44;83.65;;;38.15;;
52554;SDS011;38455;52.710;6.502;2023-10-19T07:15:11;85.72;;;38.00;;
52554;SDS011;38455;52.710;6.502;2023-10-19T07:17:44;89.63;;;38.05;;
52554;SDS011;38455;52.710;6.502;2023-10-19T07:20:11;103.13;;;40.15;;
52554;SDS011;38455;52.710;6.502;2023-10-19T07:23:07;98.45;;;39.28;;
52554;SDS011;38455;52.710;6.502;2023-10-19T07:25:52;98.03;;;40.47;;
52554;SDS011;38455;52.710;6.502;2023-10-19T07:28:25;107.80;;;41.53;;
52554;SDS011;38455;52.710;6.502;2023-10-19T07:30:51;115.75;;;43.08;;
52554;SDS011;38455;52.710;6.502;2023-10-19T07:33:18;115.43;;;43.15;;
52554;SDS011;38455;52.710;6.502;2023-10-19T07:35:47;93.68;;;39.63;;
52554;SDS011;38455;52.710;6.502;2023-10-19T07:38:20;113.88;;;45.25;;
52554;SDS011;38455;52.710;6.502;2023-10-19T07:40:47;109.40;;;43.20;;
52554;SDS011;38455;52.710;6.502;2023-10-19T07:43:13;75.30;;;36.38;;
52554;SDS011;38455;52.710;6.502;2023-10-19T07:45:38;94.10;;;41.00;;
52554;SDS011;38455;52.710;6.502;2023-10-19T07:48:05;102.90;;;42.67;;
52554;SDS011;38455;52.710;6.502;2023-10-19T07:50:35;92.40;;;42.17;;
52554;SDS011;38455;52.710;6.502;2023-10-19T07:53:02;111.55;;;46.10;;
52554;SDS011;38455;52.710;6.502;2023-10-19T07:55:28;77.55;;;38.63;;
52554;SDS011;38455;52.710;6.502;2023-10-19T07:57:57;97.80;;;41.65;;
52554;SDS011;38455;52.710;6.502;2023-10-19T08:00:25;93.80;;;39.80;;
52554;SDS011;38455;52.710;6.502;2023-10-19T08:02:51;91.57;;;42.25;;
52554;SDS011;38455;52.710;6.502;2023-10-19T08:05:18;104.03;;;45.65;;
52554;SDS011;38455;52.710;6.502;2023-10-19T08:07:44;99.57;;;45.33;;
52554;SDS011;38455;52.710;6.502;2023-10-19T08:10:17;115.22;;;51.63;;
52554;SDS011;38455;52.710;6.502;2023-10-19T08:12:45;111.07;;;48.58;;
52554;SDS011;38455;52.710;6.502;2023-10-19T08:15:15;103.45;;;44.90;;
52554;SDS011;38455;52.710;6.502;2023-10-19T08:17:42;80.80;;;40.20;;
52554;SDS011;38455;52.710;6.502;2023-10-19T08:20:10;93.22;;;42.42;;
52554;SDS011;38455;52.710;6.502;2023-10-19T08:22:49;86.95;;;40.10;;
52554;SDS011;38455;52.710;6.502;2023-10-19T08:25:24;94.22;;;42.38;;
52554;SDS011;38455;52.710;6.502;2023-10-19T08:27:53;92.32;;;42.90;;
52554;SDS011;38455;52.710;6.502;2023-10-19T08:30:22;83.18;;;38.20;;
52554;SDS011;38455;52.710;6.502;2023-10-19T08:32:48;98.70;;;41.45;;
52554;SDS011;38455;52.710;6.502;2023-10-19T08:35:17;103.97;;;44.33;;
52554;SDS011;38455;52.710;6.502;2023-10-19T08:37:45;93.40;;;40.63;;
52554;SDS011;38455;52.710;6.502;2023-10-19T08:40:12;96.30;;;44.85;;
52554;SDS011;38455;52.710;6.502;2023-10-19T08:42:43;108.38;;;47.33;;
52554;SDS011;38455;52.710;6.502;2023-10-19T08:45:13;115.05;;;47.95;;
52554;SDS011;38455;52.710;6.502;2023-10-19T08:50:29;110.03;;;43.15;;
52554;SDS011;38455;52.710;6.502;2023-10-19T08:52:59;104.80;;;43.70;;
52554;SDS011;38455;52.710;6.502;2023-10-19T08:55:29;91.53;;;41.20;;
52554;SDS011;38455;52.710;6.502;2023-10-19T08:57:55;94.13;;;42.88;;
52554;SDS011;38455;52.710;6.502;2023-10-19T09:00:23;102.43;;;41.65;;
52554;SDS011;38455;52.710;6.502;2023-10-19T09:02:53;105.88;;;44.92;;
52554;SDS011;38455;52.710;6.502;2023-10-19T09:05:19;82.25;;;38.17;;
52554;SDS011;38455;52.710;6.502;2023-10-19T09:07:48;84.50;;;41.60;;
52554;SDS011;38455;52.710;6.502;2023-10-19T09:10:20;91.25;;;44.13;;
52554;SDS011;38455;52.710;6.502;2023-10-19T09:12:57;78.55;;;39.10;;
52554;SDS011;38455;52.710;6.502;2023-10-19T09:15:25;74.45;;;35.47;;
52554;SDS011;38455;52.710;6.502;2023-10-19T09:17:51;87.85;;;42.10;;
52554;SDS011;38455;52.710;6.502;2023-10-19T09:20:20;67.40;;;35.05;;
52554;SDS011;38455;52.710;6.502;2023-10-19T09:22:55;74.95;;;38.22;;
52554;SDS011;38455;52.710;6.502;2023-10-19T09:25:23;63.15;;;34.30;;
52554;SDS011;38455;52.710;6.502;2023-10-19T09:27:50;66.38;;;34.80;;
52554;SDS011;38455;52.710;6.502;2023-10-19T09:30:16;72.05;;;36.28;;
52554;SDS011;38455;52.710;6.502;2023-10-19T09:32:47;67.38;;;33.60;;
52554;SDS011;38455;52.710;6.502;2023-10-19T09:35:14;71.20;;;34.33;;
52554;SDS011;38455;52.710;6.502;2023-10-19T09:37:41;57.17;;;32.35;;
52554;SDS011;38455;52.710;6.502;2023-10-19T09:40:08;75.43;;;37.67;;
52554;SDS011;38455;52.710;6.502;2023-10-19T09:42:42;67.90;;;34.33;;
52554;SDS011;38455;52.710;6.502;2023-10-19T09:45:13;72.35;;;37.20;;
52554;SDS011;38455;52.710;6.502;2023-10-19T09:47:47;58.83;;;31.85;;
52554;SDS011;38455;52.710;6.502;2023-10-19T09:50:15;65.07;;;34.55;;
52554;SDS011;38455;52.710;6.502;2023-10-19T09:52:41;53.50;;;31.48;;
52554;SDS011;38455;52.710;6.502;2023-10-19T09:55:12;67.13;;;34.65;;
52554;SDS011;38455;52.710;6.502;2023-10-19T10:00:35;60.50;;;32.88;;
52554;SDS011;38455;52.710;6.502;2023-10-19T10:03:01;59.60;;;33.40;;
52554;SDS011;38455;52.710;6.502;2023-10-19T10:10:43;67.55;;;36.45;;
52554;SDS011;38455;52.710;6.502;2023-10-19T10:15:53;61.75;;;35.25;;
52554;SDS011;38455;52.710;6.502;2023-10-19T10:18:20;69.10;;;36.05;;
52554;SDS011;38455;52.710;6.502;2023-10-19T10:20:46;74.38;;;37.60;;
52554;SDS011;38455;52.710;6.502;2023-10-19T10:23:19;67.32;;;35.40;;
52554;SDS011;38455;52.710;6.502;2023-10-19T10:25:50;63.22;;;35.67;;
52554;SDS011;38455;52.710;6.502;2023-10-19T10:28:19;64.18;;;34.70;;
52554;SDS011;38455;52.710;6.502;2023-10-19T10:33:44;62.25;;;34.42;;
52554;SDS011;38455;52.710;6.502;2023-10-19T10:36:11;66.38;;;34.95;;
52554;SDS011;38455;52.710;6.502;2023-10-19T10:38:37;55.50;;;31.23;;
52554;SDS011;38455;52.710;6.502;2023-10-19T10:41:04;60.78;;;32.65;;
52554;SDS011;38455;52.710;6.502;2023-10-19T10:43:30;59.10;;;32.40;;
52554;SDS011;38455;52.710;6.502;2023-10-19T10:46:29;60.80;;;33.97;;
52554;SDS011;38455;52.710;6.502;2023-10-19T10:48:48;57.42;;;32.30;;
52554;SDS011;38455;52.710;6.502;2023-10-19T10:51:18;55.45;;;32.92;;
52554;SDS011;38455;52.710;6.502;2023-10-19T10:53:47;62.17;;;32.30;;
52554;SDS011;38455;52.710;6.502;2023-10-19T10:56:17;54.85;;;31.65;;
52554;SDS011;38455;52.710;6.502;2023-10-19T10:58:47;52.28;;;31.95;;
52554;SDS011;38455;52.710;6.502;2023-10-19T11:01:13;55.58;;;33.35;;
52554;SDS011;38455;52.710;6.502;2023-10-19T11:03:40;54.50;;;32.60;;
52554;SDS011;38455;52.710;6.502;2023-10-19T11:06:07;53.55;;;32.25;;
52554;SDS011;38455;52.710;6.502;2023-10-19T11:08:34;53.88;;;31.33;;
52554;SDS011;38455;52.710;6.502;2023-10-19T11:11:01;58.20;;;32.58;;
52554;SDS011;38455;52.710;6.502;2023-10-19T11:13:29;53.22;;;32.30;;
52554;SDS011;38455;52.710;6.502;2023-10-19T11:15:58;50.50;;;31.73;;
52554;SDS011;38455;52.710;6.502;2023-10-19T11:20:56;42.40;;;28.63;;
52554;SDS011;38455;52.710;6.502;2023-10-19T11:23:37;53.42;;;31.67;;
52554;SDS011;38455;52.710;6.502;2023-10-19T11:26:18;51.40;;;32.22;;
52554;SDS011;38455;52.710;6.502;2023-10-19T11:28:45;52.88;;;31.48;;
52554;SDS011;38455;52.710;6.502;2023-10-19T11:31:20;46.55;;;30.17;;
52554;SDS011;38455;52.710;6.502;2023-10-19T11:33:52;46.60;;;31.15;;
52554;SDS011;38455;52.710;6.502;2023-10-19T11:36:23;40.80;;;27.40;;
52554;SDS011;38455;52.710;6.502;2023-10-19T11:38:50;41.47;;;27.65;;
52554;SDS011;38455;52.710;6.502;2023-10-19T11:41:19;41.25;;;27.75;;
52554;SDS011;38455;52.710;6.502;2023-10-19T11:43:46;37.92;;;26.60;;
52554;SDS011;38455;52.710;6.502;2023-10-19T11:46:13;37.03;;;27.27;;
52554;SDS011;38455;52.710;6.502;2023-10-19T11:48:50;35.88;;;25.23;;
52554;SDS011;38455;52.710;6.502;2023-10-19T11:51:15;33.15;;;25.80;;
52554;SDS011;38455;52.710;6.502;2023-10-19T11:53:42;32.45;;;23.83;;
52554;SDS011;38455;52.710;6.502;2023-10-19T11:56:08;35.30;;;23.13;;
52554;SDS011;38455;52.710;6.502;2023-10-19T11:58:36;34.40;;;23.30;;
52554;SDS011;38455;52.710;6.502;2023-10-19T12:01:10;32.25;;;24.05;;
52554;SDS011;38455;52.710;6.502;2023-10-19T12:03:39;34.03;;;24.38;;
52554;SDS011;38455;52.710;6.502;2023-10-19T12:06:08;33.35;;;23.60;;
52554;SDS011;38455;52.710;6.502;2023-10-19T12:08:36;35.53;;;25.83;;
52554;SDS011;38455;52.710;6.502;2023-10-19T12:11:02;30.90;;;22.40;;
52554;SDS011;38455;52.710;6.502;2023-10-19T12:13:29;31.13;;;24.08;;
52554;SDS011;38455;52.710;6.502;2023-10-19T12:15:56;31.75;;;23.00;;
52554;SDS011;38455;52.710;6.502;2023-10-19T12:18:23;37.83;;;24.40;;
52554;SDS011;38455;52.710;6.502;2023-10-19T12:20:51;35.92;;;24.10;;
52554;SDS011;38455;52.710;6.502;2023-10-19T12:23:21;39.47;;;26.15;;
52554;SDS011;38455;52.710;6.502;2023-10-19T12:25:48;43.15;;;26.00;;
52554;SDS011;38455;52.710;6.502;2023-10-19T12:28:14;39.95;;;26.38;;
52554;SDS011;38455;52.710;6.502;2023-10-19T12:30:42;39.15;;;27.42;;
52554;SDS011;38455;52.710;6.502;2023-10-19T12:33:08;40.67;;;27.60;;
52554;SDS011;38455;52.710;6.502;2023-10-19T12:35:37;39.85;;;26.35;;
52554;SDS011;38455;52.710;6.502;2023-10-19T12:38:13;38.47;;;27.77;;
52554;SDS011;38455;52.710;6.502;2023-10-19T12:40:45;42.58;;;27.35;;
52554;SDS011;38455;52.710;6.502;2023-10-19T12:43:12;39.72;;;28.35;;
52554;SDS011;38455;52.710;6.502;2023-10-19T12:45:39;42.45;;;27.88;;
52554;SDS011;38455;52.710;6.502;2023-10-19T12:48:05;41.20;;;26.90;;
52554;SDS011;38455;52.710;6.502;2023-10-19T12:50:33;42.40;;;28.08;;
52554;SDS011;38455;52.710;6.502;2023-10-19T12:53:00;52.40;;;31.48;;
52554;SDS011;38455;52.710;6.502;2023-10-19T12:55:26;46.63;;;31.70;;
52554;SDS011;38455;52.710;6.502;2023-10-19T12:57:52;56.75;;;34.42;;
52554;SDS011;38455;52.710;6.502;2023-10-19T13:00:19;52.95;;;32.85;;
52554;SDS011;38455;52.710;6.502;2023-10-19T13:02:54;53.25;;;31.90;;
52554;SDS011;38455;52.710;6.502;2023-10-19T13:05:26;55.03;;;33.97;;
52554;SDS011;38455;52.710;6.502;2023-10-19T13:07:53;59.42;;;34.70;;
52554;SDS011;38455;52.710;6.502;2023-10-19T13:10:23;53.22;;;32.75;;
52554;SDS011;38455;52.710;6.502;2023-10-19T13:12:53;57.10;;;34.20;;
52554;SDS011;38455;52.710;6.502;2023-10-19T13:15:19;55.20;;;33.28;;
52554;SDS011;38455;52.710;6.502;2023-10-19T13:17:47;54.30;;;32.78;;
52554;SDS011;38455;52.710;6.502;2023-10-19T13:20:13;58.17;;;34.70;;
52554;SDS011;38455;52.710;6.502;2023-10-19T13:22:43;61.00;;;33.95;;
52554;SDS011;38455;52.710;6.502;2023-10-19T13:25:09;52.53;;;31.10;;
52554;SDS011;38455;52.710;6.502;2023-10-19T13:27:41;49.50;;;30.40;;
52554;SDS011;38455;52.710;6.502;2023-10-19T13:30:07;56.20;;;32.95;;
52554;SDS011;38455;52.710;6.502;2023-10-19T13:32:36;47.10;;;28.75;;
52554;SDS011;38455;52.710;6.502;2023-10-19T13:35:02;54.38;;;32.20;;
52554;SDS011;38455;52.710;6.502;2023-10-19T13:37:28;54.00;;;31.13;;
52554;SDS011;38455;52.710;6.502;2023-10-19T13:39:53;55.72;;;30.92;;
52554;SDS011;38455;52.710;6.502;2023-10-19T13:42:20;50.83;;;29.40;;
52554;SDS011;38455;52.710;6.502;2023-10-19T13:44:47;48.78;;;30.15;;
52554;SDS011;38455;52.710;6.502;2023-10-19T13:47:12;48.28;;;27.65;;
52554;SDS011;38455;52.710;6.502;2023-10-19T13:49:38;51.97;;;30.52;;
52554;SDS011;38455;52.710;6.502;2023-10-19T13:52:04;47.15;;;29.77;;
52554;SDS011;38455;52.710;6.502;2023-10-19T13:54:30;51.30;;;29.98;;
52554;SDS011;38455;52.710;6.502;2023-10-19T13:56:56;53.33;;;30.17;;
52554;SDS011;38455;52.710;6.502;2023-10-19T13:59:21;48.13;;;29.50;;
52554;SDS011;38455;52.710;6.502;2023-10-19T14:01:49;55.10;;;28.05;;
52554;SDS011;38455;52.710;6.502;2023-10-19T14:04:15;46.45;;;28.00;;
52554;SDS011;38455;52.710;6.502;2023-10-19T14:06:41;51.58;;;31.00;;
52554;SDS011;38455;52.710;6.502;2023-10-19T14:09:08;59.65;;;29.23;;
52554;SDS011;38455;52.710;6.502;2023-10-19T14:11:37;57.75;;;29.52;;
52554;SDS011;38455;52.710;6.502;2023-10-19T14:14:03;50.10;;;26.98;;
52554;SDS011;38455;52.710;6.502;2023-10-19T14:16:29;58.33;;;31.17;;
52554;SDS011;38455;52.710;6.502;2023-10-19T14:18:56;52.65;;;27.50;;
52554;SDS011;38455;52.710;6.502;2023-10-19T14:21:21;52.92;;;29.05;;
52554;SDS011;38455;52.710;6.502;2023-10-19T14:23:51;48.05;;;26.70;;
52554;SDS011;38455;52.710;6.502;2023-10-19T14:26:18;45.30;;;26.10;;
52554;SDS011;38455;52.710;6.502;2023-10-19T14:28:44;45.25;;;25.17;;
52554;SDS011;38455;52.710;6.502;2023-10-19T14:31:10;44.47;;;27.10;;
52554;SDS011;38455;52.710;6.502;2023-10-19T14:33:36;51.22;;;27.05;;
52554;SDS011;38455;52.710;6.502;2023-10-19T14:36:06;48.22;;;26.23;;
52554;SDS011;38455;52.710;6.502;2023-10-19T14:38:32;41.10;;;26.63;;
52554;SDS011;38455;52.710;6.502;2023-10-19T14:40:58;43.72;;;24.80;;
52554;SDS011;38455;52.710;6.502;2023-10-19T14:43:24;41.30;;;24.95;;
52554;SDS011;38455;52.710;6.502;2023-10-19T14:45:54;41.60;;;25.17;;
52554;SDS011;38455;52.710;6.502;2023-10-19T14:48:22;40.72;;;25.73;;
52554;SDS011;38455;52.710;6.502;2023-10-19T14:50:48;47.15;;;26.85;;
52554;SDS011;38455;52.710;6.502;2023-10-19T14:53:16;50.30;;;26.58;;
52554;SDS011;38455;52.710;6.502;2023-10-19T14:55:45;49.63;;;25.40;;
52554;SDS011;38455;52.710;6.502;2023-10-19T14:58:11;47.67;;;24.90;;